Time;durP1;ratioP1;P1;durP2;ratioP2;P2;SDS_P1;SDS_P2;PMS_P1;PMS_P2;Temp;Humidity;BMP_temperature;BMP_pressure;BME280_temperature;BME280_humidity;BME280_pressure;Samples;Min_cycle;Max_cycle;Signal;HPM_P1;HPM_P2
2022/10/27 14:39:41;;;;;;;1.10;1.00;;;20.20;99.90;;;;;;5109573;27;20580;-69
2022/10/27 14:42:16;;;;;;;2.20;1.57;;;20.20;99.90;;;;;;5109654;28;20955;-70
2022/10/27 14:44:43;;;;;;;4.20;1.13;;;20.30;99.90;;;;;;5104370;28;20505;-70
2022/10/27 14:47:15;;;;;;;1.80;1.10;;;20.30;99.90;;;;;;5101817;28;20441;-71
2022/10/27 14:49:46;;;;;;;1.60;1.50;;;20.40;99.90;;;;;;5109712;28;20437;-71
2022/10/27 14:52:20;;;;;;;5.80;1.90;;;20.50;99.90;;;;;;5109906;28;20441;-71
2022/10/27 14:54:53;;;;;;;2.87;1.30;;;20.50;99.90;;;;;;5099252;28;20458;-71
2022/10/27 14:57:38;;;;;;;1.80;1.57;;;20.50;99.90;;;;;;5089189;28;20496;-73
2022/10/27 15:00:21;;;;;;;1.47;0.90;;;20.60;99.90;;;;;;5089258;28;20820;-71
2022/10/27 15:02:48;;;;;;;4.23;1.47;;;20.60;99.90;;;;;;5089092;28;20521;-69
2022/10/27 15:05:22;;;;;;;4.77;1.37;;;20.70;99.90;;;;;;5102858;28;20463;-71
2022/10/27 15:07:53;;;;;;;4.00;1.23;;;20.70;99.90;;;;;;5109286;28;20517;-68
2022/10/27 15:10:22;;;;;;;1.27;1.17;;;20.70;99.90;;;;;;5109308;28;20449;-68
2022/10/27 15:12:56;;;;;;;1.90;1.23;;;20.70;99.90;;;;;;5108746;28;20494;-69
2022/10/27 15:15:33;;;;;;;3.63;1.10;;;20.70;99.90;;;;;;5095088;28;20463;-69
2022/10/27 15:18:04;;;;;;;1.57;1.20;;;20.80;99.90;;;;;;5088674;28;20521;-69
2022/10/27 15:20:33;;;;;;;1.23;1.17;;;20.80;99.90;;;;;;5088497;28;20936;-68
2022/10/27 15:23:00;;;;;;;5.27;1.80;;;20.80;99.90;;;;;;5088586;28;20870;-68
2022/10/27 15:25:31;;;;;;;1.20;1.10;;;20.80;99.90;;;;;;5099212;28;20568;-69
2022/10/27 15:27:59;;;;;;;2.17;1.13;;;20.80;99.90;;;;;;5101928;28;20488;-69
2022/10/27 15:30:27;;;;;;;2.20;1.37;;;20.90;99.90;;;;;;5086589;28;20542;-71
2022/10/27 15:32:53;;;;;;;4.73;1.10;;;20.90;99.90;;;;;;5088517;28;20438;-70
2022/10/27 15:35:28;;;;;;;1.20;1.10;;;20.90;99.90;;;;;;5088264;28;20466;-70
2022/10/27 15:37:55;;;;;;;1.43;1.10;;;20.90;99.90;;;;;;5087487;28;20488;-71
2022/10/27 15:40:39;;;;;;;1.43;1.30;;;20.90;99.90;;;;;;5087981;28;20529;-69
2022/10/27 15:43:22;;;;;;;3.70;0.97;;;20.90;99.90;;;;;;5088254;28;20451;-67
2022/10/27 15:45:49;;;;;;;3.03;2.70;;;20.90;99.90;;;;;;5088069;28;20553;-70
2022/10/27 15:48:34;;;;;;;1.93;1.17;;;20.90;99.90;;;;;;5087772;28;20435;-68
2022/10/27 15:51:04;;;;;;;1.70;1.07;;;20.90;99.90;;;;;;5080626;22;20919;-68
2022/10/27 15:53:32;;;;;;;2.13;1.47;;;20.90;99.90;;;;;;5048599;28;20446;-69
2022/10/27 15:56:02;;;;;;;3.60;1.80;;;20.90;99.90;;;;;;5057137;28;20534;-68
2022/10/27 15:58:32;;;;;;;1.33;1.33;;;21.00;99.90;;;;;;5037137;28;20485;-67
2022/10/27 16:01:05;;;;;;;1.17;1.07;;;21.00;99.90;;;;;;5036770;28;21060;-68
2022/10/27 16:03:38;;;;;;;1.80;1.10;;;21.00;99.90;;;;;;5036739;28;20528;-70
2022/10/27 16:06:22;;;;;;;3.67;1.47;;;21.00;99.90;;;;;;5037034;28;20455;-68
2022/10/27 16:08:50;;;;;;;1.40;1.30;;;21.00;99.90;;;;;;5038883;28;20544;-69
2022/10/27 16:11:20;;;;;;;4.03;1.50;;;21.00;99.90;;;;;;5038421;28;20544;-70
2022/10/27 16:13:51;;;;;;;1.37;1.27;;;21.00;99.90;;;;;;5038358;28;20451;-67
2022/10/27 16:16:18;;;;;;;1.80;1.53;;;21.00;99.90;;;;;;5034055;28;20817;-69
2022/10/27 16:18:45;;;;;;;1.50;1.50;;;21.10;99.90;;;;;;5034248;28;20488;-70
2022/10/27 16:21:27;;;;;;;1.77;1.57;;;21.00;99.90;;;;;;5033856;28;20969;-69
2022/10/27 16:23:55;;;;;;;1.30;1.30;;;21.10;99.90;;;;;;5035963;28;20445;-69
2022/10/27 16:26:26;;;;;;;2.73;2.27;;;21.10;99.90;;;;;;5035428;28;20873;-67
2022/10/27 16:28:54;;;;;;;1.90;1.80;;;21.00;99.90;;;;;;5035494;28;20437;-69
2022/10/27 16:31:21;;;;;;;1.30;1.30;;;21.10;99.90;;;;;;5034757;28;20549;-69
2022/10/27 16:33:48;;;;;;;2.30;1.30;;;21.10;99.90;;;;;;5034817;28;20444;-68
2022/10/27 16:36:17;;;;;;;1.33;1.23;;;21.10;99.90;;;;;;5034906;28;20478;-71
2022/10/27 16:38:44;;;;;;;2.10;1.90;;;21.10;99.90;;;;;;5034539;28;20487;-76
2022/10/27 16:41:13;;;;;;;3.70;1.80;;;21.10;99.90;;;;;;5035664;28;20548;-70
2022/10/27 16:43:44;;;;;;;3.47;1.60;;;21.10;99.90;;;;;;5035992;28;20808;-73
2022/10/27 16:46:12;;;;;;;2.07;1.67;;;21.20;99.90;;;;;;5034544;28;20809;-69
2022/10/27 16:48:38;;;;;;;6.63;2.17;;;21.20;99.90;;;;;;5033798;28;20446;-52
2022/10/27 16:51:06;;;;;;;1.20;1.10;;;21.30;99.90;;;;;;5033375;28;20568;-48
2022/10/27 16:53:33;;;;;;;2.80;1.63;;;21.80;99.90;;;;;;5033841;28;20448;-60
2022/10/27 16:56:02;;;;;;;3.80;2.10;;;22.20;99.90;;;;;;5033334;28;20485;-49
2022/10/27 16:58:29;;;;;;;3.77;2.10;;;22.30;99.90;;;;;;5033818;28;20841;-62
2022/10/27 17:01:03;;;;;;;3.17;1.97;;;22.50;99.90;;;;;;5032731;28;21048;-47
2022/10/27 17:03:30;;;;;;;3.37;2.03;;;22.60;99.90;;;;;;5033582;28;20515;-59
2022/10/27 17:05:57;;;;;;;3.43;1.90;;;22.80;99.90;;;;;;5033485;28;20485;-54
2022/10/27 17:08:24;;;;;;;3.30;2.40;;;22.90;99.90;;;;;;5033273;28;20441;-58
2022/10/27 17:10:51;;;;;;;8.43;4.50;;;22.90;99.90;;;;;;5033417;28;20464;-59
2022/10/27 17:13:18;;;;;;;25.33;4.23;;;23.00;99.90;;;;;;5033467;28;21041;-63
2022/10/27 17:15:45;;;;;;;3.70;3.37;;;23.00;99.90;;;;;;5033451;28;20536;-62
2022/10/27 17:18:13;;;;;;;5.80;4.10;;;23.10;99.90;;;;;;5033613;28;20448;-63
2022/10/27 17:20:41;;;;;;;6.80;3.77;;;23.10;99.90;;;;;;5033497;28;20850;-63
2022/10/27 17:23:08;;;;;;;4.73;3.90;;;23.20;99.90;;;;;;5033737;28;20477;-65
2022/10/27 17:25:35;;;;;;;5.63;3.17;;;23.20;99.90;;;;;;5033521;28;20792;-63
2022/10/27 17:28:02;;;;;;;4.87;3.23;;;23.20;99.90;;;;;;5033609;28;20473;-59
2022/10/27 17:30:29;;;;;;;6.53;2.53;;;23.20;99.90;;;;;;5033162;28;20471;-61
2022/10/27 17:32:56;;;;;;;4.33;2.90;;;23.30;99.90;;;;;;5033363;28;20952;-60
2022/10/27 17:35:24;;;;;;;3.57;3.13;;;23.30;99.90;;;;;;5033127;28;20456;-58
2022/10/27 17:37:51;;;;;;;2.60;2.40;;;23.30;99.90;;;;;;5032772;28;20826;-60
2022/10/27 17:40:18;;;;;;;4.70;2.77;;;23.30;99.90;;;;;;5033109;28;21024;-60
2022/10/27 17:42:45;;;;;;;3.17;2.87;;;23.40;99.90;;;;;;5032598;28;20445;-60
2022/10/27 17:45:13;;;;;;;2.23;2.03;;;23.40;99.90;;;;;;5032418;28;20481;-61
2022/10/27 17:47:42;;;;;;;5.90;3.10;;;23.40;99.90;;;;;;5032475;28;20953;-61
2022/10/27 17:50:10;;;;;;;2.27;1.80;;;23.40;99.90;;;;;;5033164;28;20866;-65
2022/10/27 17:52:39;;;;;;;3.70;1.87;;;23.40;99.90;;;;;;5033241;28;20473;-65
2022/10/27 17:55:08;;;;;;;2.50;1.93;;;23.40;99.90;;;;;;5033749;28;20441;-64
2022/10/27 17:57:35;;;;;;;3.47;2.40;;;23.40;99.90;;;;;;5033102;28;20453;-65
2022/10/27 18:00:02;;;;;;;2.57;1.73;;;23.40;99.90;;;;;;5033510;28;20485;-64
2022/10/27 18:02:29;;;;;;;4.17;2.17;;;23.40;99.90;;;;;;5032741;28;20445;-66
2022/10/27 18:04:56;;;;;;;2.30;1.70;;;23.40;99.90;;;;;;5033534;28;20449;-64
2022/10/27 18:07:23;;;;;;;2.00;1.63;;;23.40;99.90;;;;;;5032949;28;20445;-64
2022/10/27 18:09:51;;;;;;;2.77;2.33;;;23.40;99.90;;;;;;5032240;28;21012;-64
2022/10/27 18:12:18;;;;;;;1.77;1.60;;;23.40;99.90;;;;;;5031783;28;20459;-64
2022/10/27 18:14:45;;;;;;;2.30;2.10;;;23.40;99.90;;;;;;5032013;28;20895;-64
2022/10/27 18:17:12;;;;;;;4.47;2.10;;;23.40;99.90;;;;;;5032331;28;20454;-63
2022/10/27 18:19:40;;;;;;;2.40;2.20;;;23.40;99.90;;;;;;5031557;28;20560;-59
2022/10/27 18:22:07;;;;;;;1.77;1.67;;;23.40;99.90;;;;;;5032678;28;20455;-64
2022/10/27 18:24:35;;;;;;;2.83;1.80;;;23.40;99.90;;;;;;5032757;28;20889;-62
2022/10/27 18:27:03;;;;;;;1.70;1.53;;;23.40;99.90;;;;;;5032609;28;20441;-61
2022/10/27 18:29:31;;;;;;;1.97;1.80;;;23.40;99.90;;;;;;5032581;28;21072;-64
2022/10/27 18:31:58;;;;;;;2.17;2.03;;;23.40;99.90;;;;;;5033362;28;20484;-64
2022/10/27 18:34:25;;;;;;;2.13;2.03;;;23.40;99.90;;;;;;5032957;28;20541;-65
2022/10/27 18:36:52;;;;;;;1.97;1.70;;;23.40;99.90;;;;;;5032822;28;20857;-64
2022/10/27 18:39:19;;;;;;;4.00;1.90;;;23.50;99.90;;;;;;5033131;28;20483;-67
2022/10/27 18:41:47;;;;;;;8.53;2.87;;;23.40;99.90;;;;;;5033051;28;20658;-66
2022/10/27 18:44:16;;;;;;;3.50;1.60;;;23.40;99.90;;;;;;5033064;28;20452;-68
2022/10/27 18:46:43;;;;;;;1.97;1.87;;;23.50;99.90;;;;;;5033235;28;20823;-66
2022/10/27 18:49:11;;;;;;;2.40;1.77;;;23.40;99.90;;;;;;5032708;28;20511;-67
2022/10/27 18:51:38;;;;;;;4.50;3.10;;;23.50;99.90;;;;;;5032730;28;20480;-68
2022/10/27 18:54:07;;;;;;;1.87;1.53;;;23.40;99.90;;;;;;5032110;28;20445;-67
2022/10/27 18:56:36;;;;;;;1.80;1.70;;;23.50;99.90;;;;;;5031789;28;20511;-65
2022/10/27 18:59:05;;;;;;;2.30;2.00;;;23.50;99.90;;;;;;5031700;28;20485;-64
2022/10/27 19:01:34;;;;;;;1.63;1.53;;;23.50;99.90;;;;;;5031333;28;21043;-64
2022/10/27 19:04:05;;;;;;;2.50;2.10;;;23.40;99.90;;;;;;5031810;28;20451;-65
2022/10/27 19:06:33;;;;;;;2.40;1.50;;;23.40;99.90;;;;;;5031751;28;20472;-69
2022/10/27 19:09:00;;;;;;;2.43;1.90;;;23.40;99.90;;;;;;5031599;28;20445;-66
2022/10/27 19:11:29;;;;;;;2.57;2.37;;;23.40;99.90;;;;;;5031464;28;20993;-67
2022/10/27 19:13:58;;;;;;;2.40;1.73;;;23.40;99.90;;;;;;5031659;28;20457;-62
2022/10/27 19:16:29;;;;;;;2.00;1.90;;;23.40;99.90;;;;;;5031442;28;20481;-66
2022/10/27 19:18:58;;;;;;;1.80;1.50;;;23.40;99.90;;;;;;5031279;28;20477;-65
2022/10/27 19:21:25;;;;;;;1.50;1.40;;;23.50;99.90;;;;;;5031361;28;20986;-61
2022/10/27 19:23:56;;;;;;;2.40;1.40;;;23.50;99.90;;;;;;5031459;28;20531;-65
2022/10/27 19:26:25;;;;;;;4.10;1.40;;;23.50;99.90;;;;;;5035189;28;20992;-61
2022/10/27 19:28:52;;;;;;;1.93;1.83;;;23.50;99.90;;;;;;5035046;28;20448;-66
2022/10/27 19:31:22;;;;;;;3.10;2.90;;;23.50;99.90;;;;;;5034941;28;20472;-65
2022/10/27 19:33:51;;;;;;;2.37;2.20;;;23.50;99.90;;;;;;5035261;28;20444;-63
2022/10/27 19:36:23;;;;;;;2.10;1.90;;;23.50;99.90;;;;;;5034982;28;20455;-66
2022/10/27 19:38:51;;;;;;;1.20;1.20;;;23.50;99.90;;;;;;5034482;28;20447;-65
2022/10/27 19:41:20;;;;;;;4.87;2.30;;;23.60;99.90;;;;;;5034628;28;20473;-65
2022/10/27 19:43:49;;;;;;;2.10;2.00;;;23.60;99.90;;;;;;5034962;28;20455;-64
2022/10/27 19:46:16;;;;;;;2.60;1.90;;;23.60;99.90;;;;;;5035159;28;20526;-68
2022/10/27 19:48:44;;;;;;;2.27;2.03;;;23.60;99.90;;;;;;5034383;28;21161;-66
2022/10/27 19:51:12;;;;;;;1.93;1.80;;;23.50;99.90;;;;;;5033920;28;20485;-66
2022/10/27 19:53:42;;;;;;;1.50;1.33;;;23.60;99.90;;;;;;5034683;28;20539;-60
2022/10/27 19:56:09;;;;;;;1.70;1.50;;;23.50;99.90;;;;;;5034567;28;20953;-59
2022/10/27 19:58:36;;;;;;;1.77;1.57;;;23.60;99.90;;;;;;5034645;28;20468;-61
2022/10/27 20:01:13;;;;;;;5.07;2.00;;;23.60;99.90;;;;;;5034259;28;20488;-60
2022/10/27 20:03:41;;;;;;;1.90;1.73;;;23.60;99.90;;;;;;5034866;28;20805;-64
2022/10/27 20:06:08;;;;;;;5.10;2.30;;;23.60;99.90;;;;;;5034394;28;20814;-65
2022/10/27 20:08:36;;;;;;;1.53;1.43;;;23.60;99.90;;;;;;5034490;28;20876;-60
2022/10/27 20:11:08;;;;;;;1.63;1.43;;;23.60;99.90;;;;;;5034123;28;20496;-64
2022/10/27 20:13:36;;;;;;;1.40;1.30;;;23.60;99.90;;;;;;5034657;28;20960;-64
2022/10/27 20:16:04;;;;;;;1.63;1.53;;;23.60;99.90;;;;;;5034185;28;20445;-64
2022/10/27 20:18:32;;;;;;;1.60;1.50;;;23.60;99.90;;;;;;5034691;28;20522;-66
2022/10/27 20:20:59;;;;;;;2.50;2.33;;;23.60;99.90;;;;;;5034036;28;20488;-65
2022/10/27 20:23:27;;;;;;;1.90;1.80;;;23.60;99.90;;;;;;5034293;28;20528;-64
2022/10/27 20:25:55;;;;;;;1.77;1.60;;;23.60;99.90;;;;;;5034099;28;20445;-65
2022/10/27 20:28:24;;;;;;;1.17;1.17;;;23.60;99.90;;;;;;5034030;28;20463;-64
2022/10/27 20:30:51;;;;;;;1.40;1.40;;;23.60;99.90;;;;;;5033916;28;20969;-66
2022/10/27 20:33:18;;;;;;;1.37;1.27;;;23.60;99.90;;;;;;5034102;28;20488;-63
2022/10/27 20:35:45;;;;;;;2.20;1.77;;;23.60;99.90;;;;;;5033565;28;20536;-65
2022/10/27 20:38:12;;;;;;;1.33;1.33;;;23.60;99.90;;;;;;5033716;28;20540;-65
2022/10/27 20:40:40;;;;;;;1.10;1.10;;;23.60;99.90;;;;;;5033407;28;20493;-65
2022/10/27 20:43:07;;;;;;;1.47;1.47;;;23.60;99.90;;;;;;5033840;28;20452;-64
2022/10/27 20:45:36;;;;;;;1.60;1.50;;;23.60;99.90;;;;;;5033628;28;20451;-65
2022/10/27 20:48:03;;;;;;;4.70;1.50;;;23.60;99.90;;;;;;5033887;28;20915;-66
2022/10/27 20:50:30;;;;;;;2.17;2.00;;;23.60;99.90;;;;;;5033352;28;21002;-66
2022/10/27 20:52:57;;;;;;;1.70;1.60;;;23.60;99.90;;;;;;5033928;28;20445;-65
2022/10/27 20:55:24;;;;;;;1.87;1.77;;;23.70;99.90;;;;;;5033516;28;21170;-67
2022/10/27 20:57:51;;;;;;;1.40;1.37;;;23.70;99.90;;;;;;5033857;28;20451;-67
2022/10/27 21:00:18;;;;;;;2.50;1.77;;;23.70;99.90;;;;;;5033194;28;20485;-66
2022/10/27 21:02:50;;;;;;;2.10;1.70;;;23.70;99.90;;;;;;5033520;28;20532;-66
2022/10/27 21:05:17;;;;;;;1.70;1.60;;;23.70;99.90;;;;;;5033195;28;20516;-67
2022/10/27 21:07:44;;;;;;;1.40;1.30;;;23.70;99.90;;;;;;5033251;28;20846;-67
2022/10/27 21:10:11;;;;;;;2.00;1.70;;;23.60;99.90;;;;;;5032823;28;20548;-67
2022/10/27 21:12:38;;;;;;;1.73;1.47;;;23.40;99.90;;;;;;5033051;28;20958;-66
2022/10/27 21:15:06;;;;;;;2.27;2.07;;;23.30;99.90;;;;;;5032979;28;20520;-66
2022/10/27 21:17:33;;;;;;;5.20;1.70;;;23.20;99.90;;;;;;5032986;28;20939;-66
2022/10/27 21:20:01;;;;;;;1.40;1.30;;;23.00;99.90;;;;;;5032536;28;20484;-66
2022/10/27 21:22:28;;;;;;;3.23;2.03;;;22.90;99.90;;;;;;5032859;28;20540;-66
2022/10/27 21:24:54;;;;;;;1.67;1.57;;;22.90;99.90;;;;;;5032663;28;20885;-66
2022/10/27 21:27:21;;;;;;;1.77;1.53;;;22.80;99.90;;;;;;5032866;28;20451;-66
2022/10/27 21:29:48;;;;;;;1.20;1.20;;;22.70;99.90;;;;;;5032681;28;20523;-66
2022/10/27 21:32:15;;;;;;;2.70;1.73;;;22.70;99.90;;;;;;5032666;28;20437;-66
2022/10/27 21:34:42;;;;;;;2.67;2.47;;;22.60;99.90;;;;;;5032502;28;20449;-66
2022/10/27 21:37:10;;;;;;;2.57;2.37;;;22.50;99.90;;;;;;5032434;28;20531;-66
2022/10/27 21:39:37;;;;;;;1.30;1.27;;;22.50;99.90;;;;;;5032096;28;20449;-66
2022/10/27 21:42:04;;;;;;;1.30;1.23;;;22.50;99.90;;;;;;5032491;28;20441;-65
2022/10/27 21:44:31;;;;;;;2.53;2.33;;;22.40;99.90;;;;;;5032388;28;20445;-66
2022/10/27 21:46:58;;;;;;;1.23;1.23;;;22.40;99.90;;;;;;5031984;28;20480;-66
2022/10/27 21:49:25;;;;;;;1.47;1.37;;;22.30;99.90;;;;;;5032481;28;20449;-66
2022/10/27 21:51:52;;;;;;;1.33;1.20;;;22.30;99.90;;;;;;5063913;22;20527;-68
2022/10/27 21:54:20;;;;;;;1.60;1.50;;;22.30;99.90;;;;;;5037266;28;20818;-68
2022/10/27 21:56:48;;;;;;;1.87;1.77;;;22.20;99.90;;;;;;5032204;28;20956;-68
2022/10/27 21:59:15;;;;;;;1.73;1.63;;;22.20;99.90;;;;;;5032237;28;20449;-68
2022/10/27 22:01:42;;;;;;;1.80;1.70;;;22.10;99.90;;;;;;5031776;28;20491;-67
2022/10/27 22:04:09;;;;;;;2.40;1.70;;;22.10;99.90;;;;;;5031835;28;20479;-68
2022/10/27 22:06:35;;;;;;;2.30;1.70;;;22.10;99.90;;;;;;5032087;28;20444;-68
2022/10/27 22:09:02;;;;;;;1.80;1.70;;;22.10;99.90;;;;;;5032038;28;20487;-67
2022/10/27 22:11:33;;;;;;;1.93;1.77;;;22.10;99.90;;;;;;5031610;28;20457;-68
2022/10/27 22:14:00;;;;;;;1.57;1.47;;;22.00;99.90;;;;;;5031828;28;20445;-68
2022/10/27 22:16:28;;;;;;;1.97;1.87;;;22.00;99.90;;;;;;5031856;28;20476;-68
2022/10/27 22:18:58;;;;;;;1.70;1.60;;;22.00;99.90;;;;;;5031898;28;20534;-68
2022/10/27 22:21:25;;;;;;;2.20;1.80;;;22.00;99.90;;;;;;5031489;28;20488;-68
2022/10/27 22:23:53;;;;;;;1.90;1.70;;;22.00;99.90;;;;;;5031632;28;20445;-68
2022/10/27 22:26:21;;;;;;;1.53;1.43;;;22.00;99.90;;;;;;5031835;28;21041;-68
2022/10/27 22:28:50;;;;;;;1.53;1.53;;;22.00;99.90;;;;;;5031902;28;20783;-68
2022/10/27 22:31:19;;;;;;;1.70;1.63;;;21.90;99.90;;;;;;5031369;28;20456;-68
2022/10/27 22:33:46;;;;;;;2.30;2.00;;;21.90;99.90;;;;;;5011962;28;20456;-68
2022/10/27 22:36:14;;;;;;;1.83;1.73;;;21.90;99.90;;;;;;5012116;28;20442;-68
2022/10/27 22:38:41;;;;;;;1.70;1.60;;;21.90;99.90;;;;;;5011939;28;20446;-68
2022/10/27 22:41:09;;;;;;;1.63;1.53;;;21.90;99.90;;;;;;5011504;28;20486;-68
2022/10/27 22:43:36;;;;;;;1.60;1.50;;;21.90;99.90;;;;;;5030288;28;20455;-68
2022/10/27 22:46:05;;;;;;;3.90;2.30;;;21.90;99.90;;;;;;5031531;28;20449;-68
2022/10/27 22:48:33;;;;;;;2.00;1.63;;;21.90;99.90;;;;;;5031590;28;20445;-68
2022/10/27 22:51:00;;;;;;;2.20;2.10;;;21.80;99.90;;;;;;5031159;28;20472;-68
2022/10/27 22:53:29;;;;;;;1.60;1.50;;;21.90;99.90;;;;;;5031056;28;20445;-68
2022/10/27 22:55:56;;;;;;;1.63;1.57;;;21.80;99.90;;;;;;5031620;28;20445;-67
2022/10/27 22:58:23;;;;;;;1.57;1.57;;;21.80;99.90;;;;;;5031608;28;20881;-67
2022/10/27 23:00:50;;;;;;;2.77;2.57;;;21.80;99.90;;;;;;5034043;28;20527;-67
2022/10/27 23:03:18;;;;;;;1.80;1.70;;;21.80;99.90;;;;;;5035237;28;20879;-67
2022/10/27 23:05:45;;;;;;;3.17;2.17;;;21.80;99.90;;;;;;5035448;28;20456;-68
2022/10/27 23:08:12;;;;;;;1.90;1.80;;;21.80;99.90;;;;;;5035344;28;20451;-68
2022/10/27 23:10:39;;;;;;;2.10;1.80;;;21.80;99.90;;;;;;5035123;28;20527;-68
2022/10/27 23:13:06;;;;;;;1.60;1.50;;;21.80;99.90;;;;;;5034993;28;20480;-67
2022/10/27 23:15:32;;;;;;;1.80;1.70;;;21.80;99.90;;;;;;5035168;28;20480;-68
2022/10/27 23:17:59;;;;;;;1.67;1.53;;;21.80;99.90;;;;;;5035244;28;20445;-68
2022/10/27 23:20:27;;;;;;;1.90;1.80;;;21.80;99.90;;;;;;5034797;28;20516;-68
2022/10/27 23:22:54;;;;;;;2.13;2.03;;;21.70;99.90;;;;;;5034863;28;20480;-68
2022/10/27 23:25:21;;;;;;;2.33;2.13;;;21.70;99.90;;;;;;5035263;28;20492;-67
2022/10/27 23:27:49;;;;;;;1.50;1.40;;;21.70;99.90;;;;;;5035091;28;20447;-68
2022/10/27 23:30:16;;;;;;;1.73;1.73;;;21.80;99.90;;;;;;5034618;28;20496;-67
2022/10/27 23:32:42;;;;;;;1.90;1.80;;;21.70;99.90;;;;;;5034640;28;20481;-68
2022/10/27 23:35:09;;;;;;;1.90;1.67;;;21.70;99.90;;;;;;5034633;28;20866;-68
2022/10/27 23:37:38;;;;;;;4.20;1.60;;;21.70;99.90;;;;;;5034826;28;21036;-68
2022/10/27 23:40:05;;;;;;;2.40;2.20;;;21.70;99.90;;;;;;5034528;28;20486;-67
2022/10/27 23:42:32;;;;;;;1.80;1.70;;;21.70;99.90;;;;;;5034428;28;20451;-68
2022/10/27 23:44:59;;;;;;;1.53;1.43;;;21.70;99.90;;;;;;5034744;28;20451;-68
2022/10/27 23:47:26;;;;;;;1.70;1.30;;;21.70;99.90;;;;;;5034651;28;20451;-68
2022/10/27 23:49:53;;;;;;;1.60;1.50;;;21.70;99.90;;;;;;5034352;28;20453;-67
2022/10/27 23:52:19;;;;;;;2.10;2.00;;;21.70;99.90;;;;;;5034333;28;20483;-67
2022/10/27 23:54:48;;;;;;;2.70;1.93;;;21.70;99.90;;;;;;5034385;28;20445;-68
2022/10/27 23:57:14;;;;;;;2.30;2.20;;;21.70;99.90;;;;;;5034476;28;20809;-67
2022/10/27 23:59:41;;;;;;;1.80;1.43;;;21.70;99.90;;;;;;5034217;28;20487;-67
